createdAt,value
2023-10-26T00:02:04.495Z,9.26
2023-10-26T00:04:31.593Z,9.27
2023-10-26T00:06:58.018Z,9.21
2023-10-26T00:09:24.950Z,9.22
2023-10-26T00:11:51.497Z,9.15
2023-10-26T00:14:17.850Z,9.02
2023-10-26T00:19:24.817Z,9.09
2023-10-26T00:21:52.842Z,9.24
2023-10-26T00:24:19.249Z,9.17
2023-10-26T00:26:45.750Z,8.98
2023-10-26T00:29:12.114Z,8.78
2023-10-26T00:31:38.979Z,9.19
2023-10-26T00:34:05.477Z,9.41
2023-10-26T00:36:31.815Z,9.04
2023-10-26T00:38:58.176Z,9.21
2023-10-26T00:41:24.543Z,9.08
2023-10-26T00:43:50.873Z,8.91
2023-10-26T00:46:17.219Z,9.07
2023-10-26T00:48:43.858Z,9.12
2023-10-26T00:51:10.582Z,8.77
2023-10-26T00:53:37.026Z,9.09
2023-10-26T00:56:11.315Z,8.84
2023-10-26T00:58:37.735Z,8.89
2023-10-26T01:01:04.170Z,9.09
2023-10-26T01:03:31.420Z,9.13
2023-10-26T01:05:58.234Z,9.23
2023-10-26T01:08:24.922Z,9.34
2023-10-26T01:10:51.341Z,9.42
2023-10-26T01:13:17.862Z,9.43
2023-10-26T01:15:44.288Z,9.68
2023-10-26T01:18:10.725Z,9.53
2023-10-26T01:20:41.025Z,9.41
2023-10-26T01:23:07.841Z,9.29
2023-10-26T01:25:34.185Z,9.58
2023-10-26T01:28:00.552Z,9.32
2023-10-26T01:30:27.050Z,9.42
2023-10-26T01:32:53.800Z,9.48
2023-10-26T01:35:20.279Z,9.25
2023-10-26T01:37:47.454Z,9.26
2023-10-26T01:40:13.797Z,9.45
2023-10-26T01:42:40.141Z,9.43
2023-10-26T01:45:06.748Z,9.25
2023-10-26T01:47:33.182Z,9.14
2023-10-26T01:50:00.691Z,9.21
2023-10-26T01:52:27.154Z,9.15
2023-10-26T01:54:53.559Z,9.18
2023-10-26T01:57:19.951Z,9.08
2023-10-26T01:59:46.374Z,9.02
2023-10-26T02:02:12.714Z,9.06
2023-10-26T02:04:39.083Z,8.97
2023-10-26T02:07:05.611Z,9.18
2023-10-26T02:09:32.056Z,9.23
2023-10-26T02:11:58.846Z,8.97
2023-10-26T02:14:25.208Z,9.12
2023-10-26T02:16:51.533Z,9.09
2023-10-26T02:19:19.532Z,8.95
2023-10-26T02:21:46.132Z,8.59
2023-10-26T02:24:12.598Z,8.71
2023-10-26T02:26:38.995Z,8.74
2023-10-26T02:29:05.421Z,8.70
2023-10-26T02:31:31.748Z,8.82
2023-10-26T02:33:58.088Z,8.88
2023-10-26T02:36:24.644Z,9.08
2023-10-26T02:38:51.132Z,9.02
2023-10-26T02:41:17.526Z,9.06
2023-10-26T02:43:43.900Z,9.06
2023-10-26T02:46:10.355Z,9.16
2023-10-26T02:48:36.751Z,9.13
2023-10-26T02:51:04.416Z,9.08
2023-10-26T02:53:30.913Z,9.09
2023-10-26T02:55:57.319Z,9.07
2023-10-26T02:58:23.678Z,9.10
2023-10-26T03:00:50.043Z,9.16
2023-10-26T03:03:16.555Z,9.14
2023-10-26T03:05:43.664Z,9.07
2023-10-26T03:08:10.094Z,9.24
2023-10-26T03:10:36.543Z,9.06
2023-10-26T03:13:03.065Z,9.22
2023-10-26T03:15:29.630Z,9.41
2023-10-26T03:17:56.118Z,9.37
2023-10-26T03:20:22.621Z,9.21
2023-10-26T03:22:48.972Z,9.11
2023-10-26T03:25:16.790Z,9.22
2023-10-26T03:27:43.523Z,9.22
2023-10-26T03:30:10.439Z,9.10
2023-10-26T03:32:36.947Z,9.33
2023-10-26T03:35:03.728Z,9.31
2023-10-26T03:37:33.108Z,9.11
2023-10-26T03:39:59.475Z,9.03
2023-10-26T03:42:25.832Z,9.01
2023-10-26T03:44:52.277Z,9.01
2023-10-26T03:47:19.944Z,9.02
2023-10-26T03:49:46.948Z,9.06
2023-10-26T03:52:13.318Z,9.10
2023-10-26T03:54:39.665Z,9.07
2023-10-26T03:57:07.363Z,8.97
2023-10-26T03:59:33.892Z,9.04
2023-10-26T04:02:00.329Z,9.06
2023-10-26T04:04:26.736Z,9.05
2023-10-26T04:06:53.093Z,8.99
2023-10-26T04:09:19.449Z,8.93
2023-10-26T04:11:46.263Z,8.99
2023-10-26T04:14:12.729Z,8.87
2023-10-26T04:16:39.162Z,8.88
2023-10-26T04:19:05.601Z,9.13
2023-10-26T04:21:32.023Z,9.25
2023-10-26T04:23:59.265Z,9.19
2023-10-26T04:26:25.689Z,9.07
2023-10-26T04:28:53.162Z,9.09
2023-10-26T04:31:21.069Z,9.18
2023-10-26T04:33:47.641Z,9.13
2023-10-26T04:36:14.107Z,9.28
2023-10-26T04:38:41.523Z,9.20
2023-10-26T04:41:07.888Z,9.26
2023-10-26T04:43:34.240Z,9.17
2023-10-26T04:46:00.749Z,9.29
2023-10-26T04:48:31.113Z,9.15
2023-10-26T04:50:57.567Z,9.20
2023-10-26T04:53:30.076Z,9.33
2023-10-26T04:55:57.414Z,9.37
2023-10-26T04:58:23.843Z,9.38
2023-10-26T05:00:51.281Z,9.37
2023-10-26T05:03:17.786Z,9.35
2023-10-26T05:05:48.285Z,9.40
2023-10-26T05:08:14.676Z,9.41
2023-10-26T05:10:42.585Z,9.40
2023-10-26T05:13:11.479Z,9.37
2023-10-26T05:15:37.941Z,9.39
2023-10-26T05:18:05.808Z,9.40
2023-10-26T05:20:34.358Z,9.38
2023-10-26T05:23:01.398Z,9.42
2023-10-26T05:25:28.919Z,9.41
2023-10-26T05:27:56.508Z,9.38
2023-10-26T05:30:24.963Z,8.79
2023-10-26T05:32:51.352Z,9.44
2023-10-26T05:35:19.780Z,9.44
2023-10-26T05:37:48.204Z,9.47
2023-10-26T05:40:14.653Z,9.47
2023-10-26T05:42:42.083Z,9.48
2023-10-26T05:45:08.733Z,9.42
2023-10-26T05:47:35.122Z,9.46
2023-10-26T05:50:01.501Z,9.53
2023-10-26T05:52:28.942Z,9.57
2023-10-26T05:54:55.290Z,9.51
2023-10-26T05:57:21.716Z,9.65
2023-10-26T05:59:48.188Z,9.61
2023-10-26T06:02:14.525Z,9.50
2023-10-26T06:04:40.957Z,9.49
2023-10-26T06:07:08.331Z,9.52
2023-10-26T06:09:34.865Z,9.55
2023-10-26T06:12:01.261Z,9.51
2023-10-26T06:14:27.618Z,9.59
2023-10-26T06:16:53.993Z,9.61
2023-10-26T06:19:20.373Z,9.57
2023-10-26T06:21:48.770Z,9.56
2023-10-26T06:24:15.190Z,9.53
2023-10-26T06:26:41.540Z,9.56
2023-10-26T06:29:07.916Z,9.58
2023-10-26T06:31:35.434Z,9.60
2023-10-26T06:34:01.950Z,9.65
2023-10-26T06:36:28.369Z,9.68
2023-10-26T06:38:55.482Z,9.71
2023-10-26T06:41:21.985Z,9.68
2023-10-26T06:43:48.364Z,9.69
2023-10-26T06:46:14.701Z,9.70
2023-10-26T06:48:41.249Z,9.74
2023-10-26T06:51:07.842Z,9.76
2023-10-26T06:53:34.765Z,9.70
2023-10-26T06:56:01.386Z,9.65
2023-10-26T06:58:33.995Z,9.66
2023-10-26T07:01:05.212Z,9.66
2023-10-26T07:03:46.450Z,9.58
2023-10-26T07:06:12.894Z,9.62
2023-10-26T07:08:39.246Z,9.67
2023-10-26T07:11:08.639Z,9.81
2023-10-26T07:13:35.724Z,9.90
2023-10-26T07:16:03.082Z,10.02
2023-10-26T07:18:29.658Z,9.95
2023-10-26T07:20:56.095Z,9.88
2023-10-26T07:23:22.527Z,9.86
2023-10-26T07:25:51.166Z,9.81
2023-10-26T07:28:17.728Z,9.69
2023-10-26T07:30:45.324Z,9.61
2023-10-26T07:33:11.771Z,9.63
2023-10-26T07:35:47.300Z,9.56
2023-10-26T07:38:35.620Z,9.52
2023-10-26T07:41:01.348Z,9.52
2023-10-26T07:43:28.998Z,9.68
2023-10-26T07:45:55.805Z,9.76
2023-10-26T07:48:22.500Z,9.83
2023-10-26T07:50:49.904Z,9.85
2023-10-26T07:53:16.480Z,9.93
2023-10-26T07:55:42.878Z,9.99
2023-10-26T07:58:09.261Z,10.03
2023-10-26T08:00:37.198Z,10.03
2023-10-26T08:03:03.749Z,10.00
2023-10-26T08:05:30.438Z,9.98
2023-10-26T08:07:56.897Z,10.04
2023-10-26T08:10:26.261Z,10.01
2023-10-26T08:12:53.528Z,10.07
2023-10-26T08:16:10.379Z,10.07
2023-10-26T08:18:08.409Z,10.08
2023-10-26T08:20:35.120Z,10.05
2023-10-26T08:23:03.360Z,9.98
2023-10-26T08:25:30.236Z,9.93
2023-10-26T08:27:56.614Z,9.93
2023-10-26T08:30:22.953Z,9.97
2023-10-26T08:32:51.280Z,10.04
2023-10-26T08:35:17.903Z,10.05
2023-10-26T08:37:44.329Z,10.05
2023-10-26T08:40:14.155Z,9.98
2023-10-26T08:42:40.765Z,9.75
2023-10-26T08:45:28.906Z,9.77
2023-10-26T08:48:02.339Z,9.38
2023-10-26T08:50:28.707Z,9.56
2023-10-26T08:52:55.158Z,9.47
2023-10-26T08:55:21.673Z,9.39
2023-10-26T08:57:49.007Z,9.33
2023-10-26T09:00:15.702Z,9.32
2023-10-26T09:02:42.572Z,9.30
2023-10-26T09:05:09.910Z,9.28
2023-10-26T09:07:38.984Z,9.34
2023-10-26T09:10:05.708Z,9.42
2023-10-26T09:12:32.094Z,9.42
2023-10-26T09:15:07.752Z,9.47
2023-10-26T09:17:34.865Z,9.43
2023-10-26T09:20:27.240Z,9.38
2023-10-26T09:22:53.805Z,9.36
2023-10-26T09:25:20.392Z,9.38
2023-10-26T09:27:47.235Z,9.52
2023-10-26T09:30:26.957Z,9.75
2023-10-26T09:32:53.465Z,9.90
2023-10-26T09:35:34.956Z,9.82
2023-10-26T09:38:01.532Z,9.89
2023-10-26T09:40:28.443Z,10.01
2023-10-26T09:42:58.534Z,10.08
2023-10-26T09:45:26.246Z,10.22
2023-10-26T09:47:52.676Z,10.31
2023-10-26T09:50:19.243Z,10.39
2023-10-26T09:52:45.878Z,10.46
2023-10-26T09:55:12.685Z,10.54
2023-10-26T09:57:43.362Z,10.59
2023-10-26T10:00:11.674Z,10.61
2023-10-26T10:02:38.055Z,10.65
2023-10-26T10:05:06.184Z,10.89
2023-10-26T10:07:43.120Z,11.09
2023-10-26T10:10:10.589Z,10.98
2023-10-26T10:12:37.659Z,10.99
2023-10-26T10:15:36.102Z,11.08
2023-10-26T10:17:57.463Z,11.23
2023-10-26T10:20:23.878Z,11.21
2023-10-26T10:22:51.889Z,11.23
2023-10-26T10:25:22.746Z,11.42
2023-10-26T10:27:49.159Z,11.53
2023-10-26T10:30:17.566Z,11.60
2023-10-26T10:32:44.224Z,11.60
2023-10-26T10:35:11.833Z,11.55
2023-10-26T10:37:39.881Z,11.58
2023-10-26T10:40:18.249Z,11.66
2023-10-26T10:42:49.214Z,11.80
2023-10-26T10:45:16.571Z,12.07
2023-10-26T10:47:43.620Z,12.29
2023-10-26T10:50:26.525Z,12.42
2023-10-26T10:52:56.418Z,12.75
2023-10-26T10:55:26.035Z,12.95
2023-10-26T10:57:56.726Z,13.11
2023-10-26T11:00:24.099Z,13.18
2023-10-26T11:02:53.676Z,13.13
2023-10-26T11:05:20.367Z,13.10
2023-10-26T11:07:48.923Z,13.10
2023-10-26T11:10:18.927Z,13.44
2023-10-26T11:12:52.076Z,13.11
2023-10-26T11:15:18.947Z,12.60
2023-10-26T11:17:45.816Z,12.39
2023-10-26T11:20:31.038Z,12.58
2023-10-26T11:22:58.093Z,12.74
2023-10-26T11:25:27.508Z,12.21
2023-10-26T11:27:53.866Z,12.14
2023-10-26T11:30:20.348Z,12.16
2023-10-26T11:32:47.289Z,12.09
2023-10-26T11:35:15.010Z,12.22
2023-10-26T11:37:42.468Z,12.22
2023-10-26T11:40:09.869Z,12.25
2023-10-26T11:42:58.137Z,12.42
2023-10-26T11:45:28.856Z,12.59
2023-10-26T11:47:55.263Z,12.29
2023-10-26T11:50:22.702Z,12.19
2023-10-26T11:52:51.918Z,11.94
2023-10-26T11:55:19.198Z,11.78
2023-10-26T11:57:46.567Z,11.66
2023-10-26T12:00:13.450Z,11.65
2023-10-26T12:02:40.592Z,11.65
2023-10-26T12:05:07.535Z,11.81
2023-10-26T12:07:34.578Z,11.68
2023-10-26T12:10:02.420Z,11.50
2023-10-26T12:12:31.204Z,11.45
2023-10-26T12:14:58.113Z,11.54
2023-10-26T12:17:26.519Z,11.57
2023-10-26T12:19:52.891Z,11.60
2023-10-26T12:22:20.172Z,11.83
2023-10-26T12:24:48.007Z,12.13
2023-10-26T12:27:17.564Z,12.48
2023-10-26T12:29:44.781Z,12.39
2023-10-26T12:32:12.640Z,12.43
2023-10-26T12:34:39.047Z,12.26
2023-10-26T12:37:05.758Z,12.20
2023-10-26T12:39:32.560Z,12.24
2023-10-26T12:42:07.142Z,12.15
2023-10-26T12:44:33.493Z,12.24
2023-10-26T12:47:00.089Z,12.30
2023-10-26T12:49:26.418Z,12.40
2023-10-26T12:51:53.933Z,12.70
2023-10-26T12:54:20.377Z,12.75
2023-10-26T12:56:47.737Z,12.72
2023-10-26T12:59:14.144Z,12.79
2023-10-26T13:01:40.618Z,13.04
2023-10-26T13:04:07.176Z,13.10
2023-10-26T13:06:39.783Z,12.91
2023-10-26T13:09:06.568Z,12.81
2023-10-26T13:11:33.029Z,13.24
2023-10-26T13:13:59.426Z,13.43
2023-10-26T13:16:26.881Z,13.71
2023-10-26T13:18:54.405Z,13.60
2023-10-26T13:21:21.873Z,13.59
2023-10-26T13:23:48.271Z,13.81
2023-10-26T13:26:14.728Z,13.61
2023-10-26T13:28:41.165Z,13.60
2023-10-26T13:31:08.066Z,13.99
2023-10-26T13:33:38.207Z,13.98
2023-10-26T13:36:04.671Z,13.97
2023-10-26T13:38:31.085Z,13.71
2023-10-26T13:40:57.437Z,13.43
2023-10-26T13:43:23.875Z,13.49
2023-10-26T13:45:52.407Z,13.46
2023-10-26T13:48:19.088Z,13.90
2023-10-26T13:50:59.944Z,13.98
2023-10-26T13:53:28.451Z,13.47
2023-10-26T13:56:00.408Z,13.67
2023-10-26T13:58:26.822Z,13.59
2023-10-26T14:00:53.249Z,13.70
2023-10-26T14:03:19.604Z,13.62
2023-10-26T14:05:54.997Z,13.79
2023-10-26T14:08:33.067Z,13.59
2023-10-26T14:10:59.761Z,13.66
2023-10-26T14:13:26.106Z,13.32
2023-10-26T14:15:52.466Z,13.46
2023-10-26T14:18:18.882Z,13.40
2023-10-26T14:20:45.273Z,13.33
2023-10-26T14:23:11.619Z,13.29
2023-10-26T14:25:37.957Z,13.27
2023-10-26T14:28:04.471Z,13.22
2023-10-26T14:30:32.406Z,13.10
2023-10-26T14:32:58.961Z,12.92
2023-10-26T14:35:25.302Z,12.95
2023-10-26T14:37:51.752Z,12.97
2023-10-26T14:40:18.876Z,13.09
2023-10-26T14:42:45.365Z,13.03
2023-10-26T14:45:11.755Z,12.82
2023-10-26T14:47:38.220Z,12.74
2023-10-26T14:50:04.913Z,12.92
2023-10-26T14:52:31.278Z,13.27
2023-10-26T14:54:57.663Z,13.19
2023-10-26T14:57:24.018Z,13.09
2023-10-26T14:59:50.341Z,12.94
2023-10-26T15:02:16.808Z,12.77
2023-10-26T15:04:43.373Z,12.73
2023-10-26T15:07:09.942Z,12.49
2023-10-26T15:10:23.782Z,12.52
2023-10-26T15:12:25.108Z,12.48
2023-10-26T15:14:51.492Z,12.73
2023-10-26T15:17:20.192Z,12.62
2023-10-26T15:19:46.633Z,12.52
2023-10-26T15:22:13.001Z,12.41
2023-10-26T15:24:39.365Z,12.35
2023-10-26T15:27:10.355Z,12.29
2023-10-26T15:29:39.151Z,12.33
2023-10-26T15:32:05.720Z,12.35
2023-10-26T15:34:32.183Z,12.45
2023-10-26T15:36:59.845Z,12.56
2023-10-26T15:39:26.187Z,12.53
2023-10-26T15:41:52.552Z,12.58
2023-10-26T15:44:21.558Z,12.56
2023-10-26T15:46:49.995Z,12.60
2023-10-26T15:49:32.817Z,12.63
2023-10-26T15:52:02.667Z,12.60
2023-10-26T15:54:29.254Z,12.63
2023-10-26T15:56:55.656Z,12.57
2023-10-26T15:59:23.747Z,12.67
2023-10-26T16:01:51.213Z,12.72
2023-10-26T16:04:17.628Z,12.62
2023-10-26T16:06:46.631Z,12.73
2023-10-26T16:09:13.572Z,12.81
2023-10-26T16:11:39.997Z,12.55
2023-10-26T16:14:07.422Z,12.72
2023-10-26T16:16:34.116Z,12.35
2023-10-26T16:19:00.621Z,12.05
2023-10-26T16:21:27.135Z,12.01
2023-10-26T16:23:53.482Z,11.97
2023-10-26T16:26:19.823Z,11.99
2023-10-26T16:28:50.511Z,12.04
2023-10-26T16:31:17.276Z,12.03
2023-10-26T16:33:44.802Z,12.05
2023-10-26T16:36:11.342Z,12.01
2023-10-26T16:38:37.686Z,11.92
2023-10-26T16:41:04.698Z,11.88
2023-10-26T16:43:31.102Z,12.01
2023-10-26T16:45:57.625Z,12.02
2023-10-26T16:48:24.445Z,12.07
2023-10-26T16:50:51.210Z,12.04
2023-10-26T16:53:30.625Z,12.08
2023-10-26T16:55:59.168Z,12.12
2023-10-26T16:58:25.636Z,12.26
2023-10-26T17:00:52.096Z,12.04
2023-10-26T17:03:18.476Z,11.84
2023-10-26T17:05:44.858Z,12.32
2023-10-26T17:08:11.958Z,12.37
2023-10-26T17:10:40.274Z,12.26
2023-10-26T17:13:10.273Z,12.20
2023-10-26T17:15:36.883Z,12.12
2023-10-26T17:18:03.983Z,11.81
2023-10-26T17:20:30.437Z,11.88
2023-10-26T17:22:56.795Z,12.11
2023-10-26T17:25:28.217Z,11.98
2023-10-26T17:27:59.174Z,11.94
2023-10-26T17:30:26.053Z,12.00
2023-10-26T17:32:54.459Z,12.19
2023-10-26T17:35:21.816Z,12.13
2023-10-26T17:37:52.741Z,12.14
2023-10-26T17:40:19.246Z,11.94
2023-10-26T17:42:46.859Z,11.95
2023-10-26T17:45:13.351Z,12.07
2023-10-26T17:47:39.842Z,11.95
2023-10-26T17:50:06.576Z,11.90
2023-10-26T17:52:36.263Z,11.72
2023-10-26T17:55:03.811Z,11.67
2023-10-26T17:57:31.702Z,11.71
2023-10-26T17:59:58.402Z,11.70
2023-10-26T18:02:27.144Z,11.59
2023-10-26T18:04:53.515Z,11.79
2023-10-26T18:07:20.845Z,11.73
2023-10-26T18:09:53.235Z,11.54
2023-10-26T18:12:20.318Z,11.44
2023-10-26T18:14:47.211Z,11.38
2023-10-26T18:17:13.560Z,11.48
2023-10-26T18:19:39.921Z,11.36
2023-10-26T18:22:06.435Z,11.27
2023-10-26T18:24:33.941Z,11.26
2023-10-26T18:27:01.147Z,11.26
2023-10-26T18:29:28.470Z,11.33
2023-10-26T18:31:57.000Z,11.26
2023-10-26T18:34:27.560Z,11.33
2023-10-26T18:36:54.405Z,11.47
2023-10-26T18:39:21.894Z,11.35
2023-10-26T18:41:48.637Z,11.23
2023-10-26T18:44:14.975Z,11.21
2023-10-26T18:47:08.105Z,11.35
2023-10-26T18:49:36.469Z,11.29
2023-10-26T18:52:21.340Z,11.32
2023-10-26T18:54:50.884Z,11.39
2023-10-26T18:57:18.275Z,11.38
2023-10-26T18:59:44.857Z,11.47
2023-10-26T19:02:17.168Z,11.59
2023-10-26T19:04:43.554Z,11.54
2023-10-26T19:07:10.348Z,11.63
2023-10-26T19:09:36.792Z,11.45
2023-10-26T19:12:04.236Z,11.36
2023-10-26T19:14:31.201Z,11.36
2023-10-26T19:17:00.761Z,11.31
2023-10-26T19:19:27.247Z,11.37
2023-10-26T19:21:53.715Z,11.32
2023-10-26T19:24:33.356Z,11.23
2023-10-26T19:26:59.683Z,11.25
2023-10-26T19:29:26.029Z,11.28
2023-10-26T19:31:52.395Z,11.25
2023-10-26T19:34:19.104Z,11.26
2023-10-26T19:36:45.547Z,11.38
2023-10-26T19:39:12.067Z,11.34
2023-10-26T19:41:38.549Z,11.30
2023-10-26T19:44:06.026Z,11.23
2023-10-26T19:46:33.674Z,11.27
2023-10-26T19:49:00.299Z,11.26
2023-10-26T19:51:26.746Z,11.24
2023-10-26T19:53:56.213Z,11.60
2023-10-26T19:56:23.348Z,11.59
2023-10-26T19:58:49.831Z,11.40
2023-10-26T20:01:18.423Z,11.31
2023-10-26T20:03:46.335Z,11.29
2023-10-26T20:06:12.720Z,11.24
2023-10-26T20:08:39.158Z,11.20
2023-10-26T20:11:05.741Z,11.26
2023-10-26T20:13:32.242Z,11.31
2023-10-26T20:15:58.678Z,11.26
2023-10-26T20:18:25.045Z,11.21
2023-10-26T20:20:51.384Z,11.16
2023-10-26T20:23:17.777Z,11.12
2023-10-26T20:25:44.181Z,11.17
2023-10-26T20:28:10.991Z,11.13
2023-10-26T20:30:37.415Z,11.10
2023-10-26T20:33:05.438Z,11.09
2023-10-26T20:35:31.877Z,11.09
2023-10-26T20:37:58.237Z,11.10
2023-10-26T20:40:24.702Z,10.96
2023-10-26T20:42:53.051Z,11.05
2023-10-26T20:45:19.561Z,11.10
2023-10-26T20:47:53.255Z,11.07
2023-10-26T20:50:19.648Z,11.01
2023-10-26T20:52:46.021Z,10.96
2023-10-26T20:55:12.639Z,10.94
2023-10-26T20:57:39.148Z,10.83
2023-10-26T21:00:05.801Z,10.74
2023-10-26T21:02:33.261Z,10.61
2023-10-26T21:05:00.258Z,10.61
2023-10-26T21:07:27.734Z,10.66
2023-10-26T21:09:54.189Z,10.65
2023-10-26T21:12:20.676Z,10.60
2023-10-26T21:14:47.145Z,10.59
2023-10-26T21:17:13.575Z,10.60
2023-10-26T21:19:39.908Z,10.57
2023-10-26T21:22:09.392Z,10.55
2023-10-26T21:24:35.736Z,10.51
2023-10-26T21:27:02.107Z,10.52
2023-10-26T21:29:28.740Z,10.54
2023-10-26T21:31:55.213Z,10.54
2023-10-26T21:34:23.632Z,10.47
2023-10-26T21:36:50.006Z,10.35
2023-10-26T21:39:16.365Z,10.42
2023-10-26T21:41:42.865Z,10.43
2023-10-26T21:44:09.194Z,10.48
2023-10-26T21:46:35.720Z,10.06
2023-10-26T21:49:02.145Z,10.43
2023-10-26T21:51:28.551Z,10.45
2023-10-26T21:53:54.937Z,10.49
2023-10-26T21:56:21.311Z,10.53
2023-10-26T21:58:47.805Z,10.53
2023-10-26T22:01:14.342Z,10.51
2023-10-26T22:03:43.090Z,10.44
2023-10-26T22:06:09.668Z,10.27
2023-10-26T22:08:37.246Z,10.24
2023-10-26T22:11:04.049Z,10.23
2023-10-26T22:13:30.502Z,10.27
2023-10-26T22:15:57.098Z,10.23
2023-10-26T22:18:23.620Z,10.24
2023-10-26T22:20:50.209Z,10.22
2023-10-26T22:23:16.589Z,10.34
2023-10-26T22:25:42.967Z,10.40
2023-10-26T22:28:09.626Z,10.44
2023-10-26T22:30:36.488Z,10.49
2023-10-26T22:33:02.898Z,10.52
2023-10-26T22:35:29.522Z,10.36
2023-10-26T22:37:55.974Z,10.27
2023-10-26T22:40:22.795Z,10.26
2023-10-26T22:42:49.258Z,10.39
2023-10-26T22:45:15.834Z,10.53
2023-10-26T22:47:42.879Z,10.42
2023-10-26T22:50:09.468Z,10.47
2023-10-26T22:52:36.126Z,10.38
2023-10-26T22:55:03.556Z,10.37
2023-10-26T22:57:30.054Z,10.30
2023-10-26T22:59:57.273Z,10.33
2023-10-26T23:02:23.730Z,10.18
2023-10-26T23:04:51.593Z,10.12
2023-10-26T23:07:17.992Z,10.25
2023-10-26T23:09:44.506Z,10.12
2023-10-26T23:12:11.032Z,10.11
2023-10-26T23:14:37.374Z,10.03
2023-10-26T23:17:03.929Z,10.00
2023-10-26T23:19:30.280Z,10.18
2023-10-26T23:21:56.708Z,10.09
2023-10-26T23:24:27.455Z,10.11
2023-10-26T23:26:55.678Z,10.17
2023-10-26T23:29:23.215Z,10.13
2023-10-26T23:31:49.819Z,10.14
2023-10-26T23:34:16.264Z,9.99
2023-10-26T23:36:42.922Z,9.89
2023-10-26T23:39:09.315Z,9.87
2023-10-26T23:41:35.658Z,9.94
2023-10-26T23:44:01.980Z,9.85
2023-10-26T23:46:28.330Z,9.71
2023-10-26T23:48:54.765Z,9.55
2023-10-26T23:51:21.397Z,9.50
2023-10-26T23:53:47.781Z,9.44
2023-10-26T23:56:15.158Z,9.44
2023-10-26T23:58:41.499Z,9.50
